sensor_id;sensor_type;location;lat;lon;timestamp;P1;durP1;ratioP1;P2;durP2;ratioP2
76814;SDS011;65768;49.906;19.384;2023-04-03T00:01:21;8.30;;;5.40;;
76814;SDS011;65768;49.906;19.384;2023-04-03T00:03:50;7.00;;;3.80;;
76814;SDS011;65768;49.906;19.384;2023-04-03T00:06:20;9.80;;;6.00;;
76814;SDS011;65768;49.906;19.384;2023-04-03T00:08:48;10.70;;;6.60;;
76814;SDS011;65768;49.906;19.384;2023-04-03T00:11:17;10.40;;;6.30;;
76814;SDS011;65768;49.906;19.384;2023-04-03T00:13:46;9.60;;;6.00;;
76814;SDS011;65768;49.906;19.384;2023-04-03T00:16:14;9.00;;;6.30;;
76814;SDS011;65768;49.906;19.384;2023-04-03T00:18:43;7.80;;;4.00;;
76814;SDS011;65768;49.906;19.384;2023-04-03T00:21:12;8.30;;;4.50;;
76814;SDS011;65768;49.906;19.384;2023-04-03T00:23:41;6.00;;;4.10;;
76814;SDS011;65768;49.906;19.384;2023-04-03T00:26:11;4.90;;;3.30;;
76814;SDS011;65768;49.906;19.384;2023-04-03T00:28:40;6.80;;;4.40;;
76814;SDS011;65768;49.906;19.384;2023-04-03T00:31:09;6.70;;;4.50;;
76814;SDS011;65768;49.906;19.384;2023-04-03T00:33:37;5.20;;;4.10;;
76814;SDS011;65768;49.906;19.384;2023-04-03T00:36:07;6.10;;;3.10;;
76814;SDS011;65768;49.906;19.384;2023-04-03T00:38:36;6.20;;;3.20;;
76814;SDS011;65768;49.906;19.384;2023-04-03T00:41:05;9.70;;;5.00;;
76814;SDS011;65768;49.906;19.384;2023-04-03T00:43:34;7.00;;;4.90;;
76814;SDS011;65768;49.906;19.384;2023-04-03T00:46:03;7.90;;;4.70;;
76814;SDS011;65768;49.906;19.384;2023-04-03T00:48:35;8.30;;;5.90;;
76814;SDS011;65768;49.906;19.384;2023-04-03T00:51:19;5.30;;;3.10;;
76814;SDS011;65768;49.906;19.384;2023-04-03T00:53:55;8.90;;;4.80;;
76814;SDS011;65768;49.906;19.384;2023-04-03T00:56:28;11.60;;;5.90;;
76814;SDS011;65768;49.906;19.384;2023-04-03T00:58:59;9.50;;;4.80;;
76814;SDS011;65768;49.906;19.384;2023-04-03T01:01:34;8.00;;;5.00;;
76814;SDS011;65768;49.906;19.384;2023-04-03T01:04:04;6.10;;;3.60;;
76814;SDS011;65768;49.906;19.384;2023-04-03T01:06:35;7.60;;;4.80;;
76814;SDS011;65768;49.906;19.384;2023-04-03T01:09:05;8.70;;;5.80;;
76814;SDS011;65768;49.906;19.384;2023-04-03T01:11:33;10.10;;;5.50;;
76814;SDS011;65768;49.906;19.384;2023-04-03T01:14:02;7.80;;;5.80;;
76814;SDS011;65768;49.906;19.384;2023-04-03T01:16:30;6.50;;;3.80;;
76814;SDS011;65768;49.906;19.384;2023-04-03T01:19:00;7.30;;;4.70;;
76814;SDS011;65768;49.906;19.384;2023-04-03T01:24:31;10.10;;;6.90;;
76814;SDS011;65768;49.906;19.384;2023-04-03T01:29:32;8.40;;;5.90;;
76814;SDS011;65768;49.906;19.384;2023-04-03T01:32:01;5.90;;;3.10;;
76814;SDS011;65768;49.906;19.384;2023-04-03T01:34:31;9.20;;;5.60;;
76814;SDS011;65768;49.906;19.384;2023-04-03T01:37:00;6.30;;;3.50;;
76814;SDS011;65768;49.906;19.384;2023-04-03T01:39:28;9.70;;;5.70;;
76814;SDS011;65768;49.906;19.384;2023-04-03T01:41:57;7.30;;;4.50;;
76814;SDS011;65768;49.906;19.384;2023-04-03T01:44:26;4.10;;;3.00;;
76814;SDS011;65768;49.906;19.384;2023-04-03T01:46:55;7.30;;;5.00;;
76814;SDS011;65768;49.906;19.384;2023-04-03T01:49:23;5.40;;;3.50;;
76814;SDS011;65768;49.906;19.384;2023-04-03T01:51:51;6.30;;;4.10;;
76814;SDS011;65768;49.906;19.384;2023-04-03T01:54:20;4.40;;;2.90;;
76814;SDS011;65768;49.906;19.384;2023-04-03T01:56:50;4.00;;;3.10;;
76814;SDS011;65768;49.906;19.384;2023-04-03T01:59:18;7.70;;;4.40;;
76814;SDS011;65768;49.906;19.384;2023-04-03T02:01:46;8.20;;;4.20;;
76814;SDS011;65768;49.906;19.384;2023-04-03T02:04:15;6.60;;;3.90;;
76814;SDS011;65768;49.906;19.384;2023-04-03T02:06:43;7.90;;;4.50;;
76814;SDS011;65768;49.906;19.384;2023-04-03T02:09:11;7.40;;;4.60;;
76814;SDS011;65768;49.906;19.384;2023-04-03T02:11:40;8.30;;;4.00;;
76814;SDS011;65768;49.906;19.384;2023-04-03T02:14:08;5.50;;;3.20;;
76814;SDS011;65768;49.906;19.384;2023-04-03T02:16:36;3.00;;;2.60;;
76814;SDS011;65768;49.906;19.384;2023-04-03T02:19:06;4.10;;;2.80;;
76814;SDS011;65768;49.906;19.384;2023-04-03T02:21:35;4.00;;;2.50;;
76814;SDS011;65768;49.906;19.384;2023-04-03T02:24:04;4.30;;;2.70;;
76814;SDS011;65768;49.906;19.384;2023-04-03T02:26:33;4.50;;;2.70;;
76814;SDS011;65768;49.906;19.384;2023-04-03T02:29:03;8.00;;;4.30;;
76814;SDS011;65768;49.906;19.384;2023-04-03T02:31:31;7.90;;;5.10;;
76814;SDS011;65768;49.906;19.384;2023-04-03T02:33:59;7.60;;;5.00;;
76814;SDS011;65768;49.906;19.384;2023-04-03T02:36:28;6.80;;;4.10;;
76814;SDS011;65768;49.906;19.384;2023-04-03T02:38:57;7.20;;;5.40;;
76814;SDS011;65768;49.906;19.384;2023-04-03T02:41:26;8.40;;;5.70;;
76814;SDS011;65768;49.906;19.384;2023-04-03T02:44:02;8.30;;;5.60;;
76814;SDS011;65768;49.906;19.384;2023-04-03T02:46:31;7.00;;;5.00;;
76814;SDS011;65768;49.906;19.384;2023-04-03T02:48:59;4.80;;;3.50;;
76814;SDS011;65768;49.906;19.384;2023-04-03T02:51:28;5.30;;;3.40;;
76814;SDS011;65768;49.906;19.384;2023-04-03T02:53:58;7.10;;;4.50;;
76814;SDS011;65768;49.906;19.384;2023-04-03T02:56:26;4.60;;;3.00;;
76814;SDS011;65768;49.906;19.384;2023-04-03T02:58:55;6.00;;;4.60;;
76814;SDS011;65768;49.906;19.384;2023-04-03T03:01:23;9.40;;;5.70;;
76814;SDS011;65768;49.906;19.384;2023-04-03T03:03:51;7.60;;;3.60;;
76814;SDS011;65768;49.906;19.384;2023-04-03T03:06:20;6.70;;;3.90;;
76814;SDS011;65768;49.906;19.384;2023-04-03T03:08:49;6.90;;;4.00;;
76814;SDS011;65768;49.906;19.384;2023-04-03T03:11:18;6.10;;;4.20;;
76814;SDS011;65768;49.906;19.384;2023-04-03T03:13:46;8.10;;;5.30;;
76814;SDS011;65768;49.906;19.384;2023-04-03T03:16:15;9.50;;;5.10;;
76814;SDS011;65768;49.906;19.384;2023-04-03T03:18:43;9.30;;;5.30;;
76814;SDS011;65768;49.906;19.384;2023-04-03T03:21:12;6.80;;;4.60;;
76814;SDS011;65768;49.906;19.384;2023-04-03T03:23:41;11.20;;;5.10;;
76814;SDS011;65768;49.906;19.384;2023-04-03T03:26:10;6.30;;;3.50;;
76814;SDS011;65768;49.906;19.384;2023-04-03T03:28:39;7.90;;;4.10;;
76814;SDS011;65768;49.906;19.384;2023-04-03T03:31:08;11.00;;;5.70;;
76814;SDS011;65768;49.906;19.384;2023-04-03T03:33:36;11.40;;;6.40;;
76814;SDS011;65768;49.906;19.384;2023-04-03T03:36:05;6.50;;;4.30;;
76814;SDS011;65768;49.906;19.384;2023-04-03T03:38:34;6.90;;;4.40;;
76814;SDS011;65768;49.906;19.384;2023-04-03T03:41:02;8.00;;;5.40;;
76814;SDS011;65768;49.906;19.384;2023-04-03T03:43:30;7.00;;;4.60;;
76814;SDS011;65768;49.906;19.384;2023-04-03T03:45:58;8.10;;;5.00;;
76814;SDS011;65768;49.906;19.384;2023-04-03T03:48:27;9.10;;;5.00;;
76814;SDS011;65768;49.906;19.384;2023-04-03T03:50:55;8.50;;;5.30;;
76814;SDS011;65768;49.906;19.384;2023-04-03T03:53:23;9.40;;;5.90;;
76814;SDS011;65768;49.906;19.384;2023-04-03T03:55:52;10.10;;;6.10;;
76814;SDS011;65768;49.906;19.384;2023-04-03T03:58:20;9.10;;;6.00;;
76814;SDS011;65768;49.906;19.384;2023-04-03T04:00:49;11.60;;;7.10;;
76814;SDS011;65768;49.906;19.384;2023-04-03T04:03:18;10.90;;;6.80;;
76814;SDS011;65768;49.906;19.384;2023-04-03T04:05:47;13.90;;;7.90;;
76814;SDS011;65768;49.906;19.384;2023-04-03T04:08:15;11.20;;;7.10;;
76814;SDS011;65768;49.906;19.384;2023-04-03T04:10:44;8.20;;;5.50;;
76814;SDS011;65768;49.906;19.384;2023-04-03T04:13:12;12.60;;;8.40;;
76814;SDS011;65768;49.906;19.384;2023-04-03T04:15:40;8.60;;;5.60;;
76814;SDS011;65768;49.906;19.384;2023-04-03T04:18:09;11.60;;;6.30;;
76814;SDS011;65768;49.906;19.384;2023-04-03T04:20:37;8.30;;;5.00;;
76814;SDS011;65768;49.906;19.384;2023-04-03T04:23:05;5.10;;;4.20;;
76814;SDS011;65768;49.906;19.384;2023-04-03T04:25:33;8.40;;;4.00;;
76814;SDS011;65768;49.906;19.384;2023-04-03T04:28:03;6.30;;;4.40;;
76814;SDS011;65768;49.906;19.384;2023-04-03T04:30:31;7.90;;;5.80;;
76814;SDS011;65768;49.906;19.384;2023-04-03T04:33:00;16.50;;;7.30;;
76814;SDS011;65768;49.906;19.384;2023-04-03T04:35:29;8.30;;;4.80;;
76814;SDS011;65768;49.906;19.384;2023-04-03T04:37:57;9.70;;;5.50;;
76814;SDS011;65768;49.906;19.384;2023-04-03T04:40:25;12.90;;;8.20;;
76814;SDS011;65768;49.906;19.384;2023-04-03T04:42:54;15.50;;;8.40;;
76814;SDS011;65768;49.906;19.384;2023-04-03T04:45:23;12.10;;;7.90;;
76814;SDS011;65768;49.906;19.384;2023-04-03T04:47:54;11.80;;;6.30;;
76814;SDS011;65768;49.906;19.384;2023-04-03T04:50:24;9.70;;;5.40;;
76814;SDS011;65768;49.906;19.384;2023-04-03T04:52:52;9.70;;;6.70;;
76814;SDS011;65768;49.906;19.384;2023-04-03T04:55:20;9.30;;;6.50;;
76814;SDS011;65768;49.906;19.384;2023-04-03T04:57:50;8.60;;;4.40;;
76814;SDS011;65768;49.906;19.384;2023-04-03T05:00:19;9.20;;;5.50;;
76814;SDS011;65768;49.906;19.384;2023-04-03T05:02:48;7.80;;;4.40;;
76814;SDS011;65768;49.906;19.384;2023-04-03T05:05:17;8.80;;;5.70;;
76814;SDS011;65768;49.906;19.384;2023-04-03T05:07:46;7.00;;;5.00;;
76814;SDS011;65768;49.906;19.384;2023-04-03T05:10:15;6.90;;;3.90;;
76814;SDS011;65768;49.906;19.384;2023-04-03T05:12:44;6.60;;;4.20;;
76814;SDS011;65768;49.906;19.384;2023-04-03T05:15:13;9.10;;;6.40;;
76814;SDS011;65768;49.906;19.384;2023-04-03T05:17:42;10.20;;;5.80;;
76814;SDS011;65768;49.906;19.384;2023-04-03T05:20:11;6.10;;;4.20;;
76814;SDS011;65768;49.906;19.384;2023-04-03T05:22:40;9.10;;;5.80;;
76814;SDS011;65768;49.906;19.384;2023-04-03T05:25:09;8.30;;;5.30;;
76814;SDS011;65768;49.906;19.384;2023-04-03T05:27:38;6.90;;;4.10;;
76814;SDS011;65768;49.906;19.384;2023-04-03T05:30:06;9.00;;;5.40;;
76814;SDS011;65768;49.906;19.384;2023-04-03T05:32:36;8.00;;;4.10;;
76814;SDS011;65768;49.906;19.384;2023-04-03T05:35:04;8.30;;;4.90;;
76814;SDS011;65768;49.906;19.384;2023-04-03T05:37:36;4.50;;;3.10;;
76814;SDS011;65768;49.906;19.384;2023-04-03T05:40:04;13.30;;;6.80;;
76814;SDS011;65768;49.906;19.384;2023-04-03T05:42:34;11.60;;;6.70;;
76814;SDS011;65768;49.906;19.384;2023-04-03T05:45:02;7.80;;;5.70;;
76814;SDS011;65768;49.906;19.384;2023-04-03T05:47:32;8.70;;;5.40;;
76814;SDS011;65768;49.906;19.384;2023-04-03T05:50:01;13.10;;;6.40;;
76814;SDS011;65768;49.906;19.384;2023-04-03T05:52:30;10.40;;;5.50;;
76814;SDS011;65768;49.906;19.384;2023-04-03T05:55:02;12.60;;;7.20;;
76814;SDS011;65768;49.906;19.384;2023-04-03T05:57:31;9.40;;;6.40;;
76814;SDS011;65768;49.906;19.384;2023-04-03T06:00:00;6.90;;;4.20;;
76814;SDS011;65768;49.906;19.384;2023-04-03T06:02:29;14.00;;;8.80;;
76814;SDS011;65768;49.906;19.384;2023-04-03T06:04:57;11.10;;;7.00;;
76814;SDS011;65768;49.906;19.384;2023-04-03T06:07:27;14.10;;;9.50;;
76814;SDS011;65768;49.906;19.384;2023-04-03T06:09:56;10.60;;;6.40;;
76814;SDS011;65768;49.906;19.384;2023-04-03T06:12:25;15.60;;;8.30;;
76814;SDS011;65768;49.906;19.384;2023-04-03T06:14:53;13.50;;;7.60;;
76814;SDS011;65768;49.906;19.384;2023-04-03T06:17:22;9.70;;;5.90;;
76814;SDS011;65768;49.906;19.384;2023-04-03T06:19:51;11.40;;;6.20;;
76814;SDS011;65768;49.906;19.384;2023-04-03T06:22:19;7.00;;;4.50;;
76814;SDS011;65768;49.906;19.384;2023-04-03T06:24:48;11.40;;;6.00;;
76814;SDS011;65768;49.906;19.384;2023-04-03T06:27:17;6.70;;;4.60;;
76814;SDS011;65768;49.906;19.384;2023-04-03T06:29:45;12.30;;;5.90;;
76814;SDS011;65768;49.906;19.384;2023-04-03T06:32:14;7.20;;;5.40;;
76814;SDS011;65768;49.906;19.384;2023-04-03T06:34:44;7.90;;;5.20;;
76814;SDS011;65768;49.906;19.384;2023-04-03T06:37:17;11.20;;;6.50;;
76814;SDS011;65768;49.906;19.384;2023-04-03T06:39:47;5.80;;;4.10;;
76814;SDS011;65768;49.906;19.384;2023-04-03T06:42:16;8.50;;;5.00;;
76814;SDS011;65768;49.906;19.384;2023-04-03T06:44:44;10.70;;;6.10;;
76814;SDS011;65768;49.906;19.384;2023-04-03T06:47:14;7.90;;;5.40;;
76814;SDS011;65768;49.906;19.384;2023-04-03T06:49:42;10.70;;;7.00;;
76814;SDS011;65768;49.906;19.384;2023-04-03T06:52:12;7.70;;;3.50;;
76814;SDS011;65768;49.906;19.384;2023-04-03T06:54:40;10.10;;;4.80;;
76814;SDS011;65768;49.906;19.384;2023-04-03T06:57:09;9.10;;;4.20;;
76814;SDS011;65768;49.906;19.384;2023-04-03T06:59:38;8.10;;;4.60;;
76814;SDS011;65768;49.906;19.384;2023-04-03T07:02:06;6.50;;;3.50;;
76814;SDS011;65768;49.906;19.384;2023-04-03T07:04:37;5.10;;;2.80;;
76814;SDS011;65768;49.906;19.384;2023-04-03T07:07:05;7.30;;;3.70;;
76814;SDS011;65768;49.906;19.384;2023-04-03T07:09:34;3.30;;;2.00;;
76814;SDS011;65768;49.906;19.384;2023-04-03T07:12:03;6.80;;;3.90;;
76814;SDS011;65768;49.906;19.384;2023-04-03T07:14:31;5.70;;;2.50;;
76814;SDS011;65768;49.906;19.384;2023-04-03T07:16:59;6.20;;;2.80;;
76814;SDS011;65768;49.906;19.384;2023-04-03T07:19:28;6.90;;;3.40;;
76814;SDS011;65768;49.906;19.384;2023-04-03T07:21:57;5.00;;;2.50;;
76814;SDS011;65768;49.906;19.384;2023-04-03T07:24:26;5.30;;;3.30;;
76814;SDS011;65768;49.906;19.384;2023-04-03T07:26:54;6.40;;;3.80;;
76814;SDS011;65768;49.906;19.384;2023-04-03T07:29:23;4.50;;;2.60;;
76814;SDS011;65768;49.906;19.384;2023-04-03T07:31:51;3.60;;;2.20;;
76814;SDS011;65768;49.906;19.384;2023-04-03T07:34:20;3.50;;;1.90;;
76814;SDS011;65768;49.906;19.384;2023-04-03T07:36:51;5.20;;;2.10;;
76814;SDS011;65768;49.906;19.384;2023-04-03T07:39:19;4.90;;;1.90;;
76814;SDS011;65768;49.906;19.384;2023-04-03T07:41:47;3.90;;;1.90;;
76814;SDS011;65768;49.906;19.384;2023-04-03T07:44:15;4.50;;;2.80;;
76814;SDS011;65768;49.906;19.384;2023-04-03T07:46:43;4.60;;;2.30;;
76814;SDS011;65768;49.906;19.384;2023-04-03T07:49:12;3.10;;;1.60;;
76814;SDS011;65768;49.906;19.384;2023-04-03T07:51:40;5.20;;;2.40;;
76814;SDS011;65768;49.906;19.384;2023-04-03T07:54:08;5.90;;;2.10;;
76814;SDS011;65768;49.906;19.384;2023-04-03T07:56:38;4.50;;;2.30;;
76814;SDS011;65768;49.906;19.384;2023-04-03T07:59:07;5.40;;;2.90;;
76814;SDS011;65768;49.906;19.384;2023-04-03T08:01:36;3.30;;;2.00;;
76814;SDS011;65768;49.906;19.384;2023-04-03T08:04:05;8.60;;;3.90;;
76814;SDS011;65768;49.906;19.384;2023-04-03T08:06:34;10.20;;;3.10;;
76814;SDS011;65768;49.906;19.384;2023-04-03T08:09:04;5.60;;;2.50;;
76814;SDS011;65768;49.906;19.384;2023-04-03T08:11:32;7.20;;;2.60;;
76814;SDS011;65768;49.906;19.384;2023-04-03T08:14:00;4.30;;;2.20;;
76814;SDS011;65768;49.906;19.384;2023-04-03T08:16:30;4.00;;;2.00;;
76814;SDS011;65768;49.906;19.384;2023-04-03T08:18:58;7.20;;;2.80;;
76814;SDS011;65768;49.906;19.384;2023-04-03T08:21:27;5.20;;;2.70;;
76814;SDS011;65768;49.906;19.384;2023-04-03T08:23:55;5.00;;;3.00;;
76814;SDS011;65768;49.906;19.384;2023-04-03T08:26:24;6.50;;;2.70;;
76814;SDS011;65768;49.906;19.384;2023-04-03T08:28:54;5.00;;;2.10;;
76814;SDS011;65768;49.906;19.384;2023-04-03T08:31:23;4.80;;;1.60;;
76814;SDS011;65768;49.906;19.384;2023-04-03T08:33:51;6.10;;;3.20;;
76814;SDS011;65768;49.906;19.384;2023-04-03T08:36:26;4.00;;;1.90;;
76814;SDS011;65768;49.906;19.384;2023-04-03T08:38:57;6.00;;;2.60;;
76814;SDS011;65768;49.906;19.384;2023-04-03T08:41:39;5.20;;;2.00;;
76814;SDS011;65768;49.906;19.384;2023-04-03T08:52:35;3.50;;;1.30;;
76814;SDS011;65768;49.906;19.384;2023-04-03T08:55:11;4.90;;;1.60;;
76814;SDS011;65768;49.906;19.384;2023-04-03T08:57:43;1.60;;;1.20;;
76814;SDS011;65768;49.906;19.384;2023-04-03T09:00:19;1.60;;;1.00;;
76814;SDS011;65768;49.906;19.384;2023-04-03T09:02:52;2.20;;;0.90;;
76814;SDS011;65768;49.906;19.384;2023-04-03T09:08:24;3.10;;;1.40;;
76814;SDS011;65768;49.906;19.384;2023-04-03T09:11:03;2.70;;;1.10;;
76814;SDS011;65768;49.906;19.384;2023-04-03T09:16:20;3.80;;;1.50;;
76814;SDS011;65768;49.906;19.384;2023-04-03T09:19:08;3.50;;;1.40;;
76814;SDS011;65768;49.906;19.384;2023-04-03T09:21:48;4.20;;;1.40;;
76814;SDS011;65768;49.906;19.384;2023-04-03T09:24:16;3.30;;;1.90;;
76814;SDS011;65768;49.906;19.384;2023-04-03T09:29:20;1.70;;;0.60;;
76814;SDS011;65768;49.906;19.384;2023-04-03T09:34:49;2.50;;;1.00;;
76814;SDS011;65768;49.906;19.384;2023-04-03T09:40:04;3.10;;;1.30;;
76814;SDS011;65768;49.906;19.384;2023-04-03T09:42:34;3.70;;;1.50;;
76814;SDS011;65768;49.906;19.384;2023-04-03T09:45:18;2.00;;;0.70;;
76814;SDS011;65768;49.906;19.384;2023-04-03T09:48:16;1.40;;;0.80;;
76814;SDS011;65768;49.906;19.384;2023-04-03T09:53:38;3.90;;;1.00;;
76814;SDS011;65768;49.906;19.384;2023-04-03T09:58:47;3.10;;;1.10;;
76814;SDS011;65768;49.906;19.384;2023-04-03T10:01:38;2.50;;;1.10;;
76814;SDS011;65768;49.906;19.384;2023-04-03T10:06:39;1.90;;;0.90;;
76814;SDS011;65768;49.906;19.384;2023-04-03T10:09:20;1.60;;;0.60;;
76814;SDS011;65768;49.906;19.384;2023-04-03T10:12:04;3.80;;;1.20;;
76814;SDS011;65768;49.906;19.384;2023-04-03T10:20:35;4.10;;;2.00;;
76814;SDS011;65768;49.906;19.384;2023-04-03T10:23:26;5.70;;;1.50;;
76814;SDS011;65768;49.906;19.384;2023-04-03T10:34:33;4.10;;;1.80;;
76814;SDS011;65768;49.906;19.384;2023-04-03T10:40:02;1.40;;;0.80;;
76814;SDS011;65768;49.906;19.384;2023-04-03T10:42:46;2.10;;;1.00;;
76814;SDS011;65768;49.906;19.384;2023-04-03T10:45:24;1.70;;;0.80;;
76814;SDS011;65768;49.906;19.384;2023-04-03T10:48:33;1.30;;;0.70;;
76814;SDS011;65768;49.906;19.384;2023-04-03T10:53:45;1.60;;;0.80;;
76814;SDS011;65768;49.906;19.384;2023-04-03T10:56:35;3.20;;;1.10;;
76814;SDS011;65768;49.906;19.384;2023-04-03T11:05:07;2.90;;;1.10;;
76814;SDS011;65768;49.906;19.384;2023-04-03T11:07:40;2.40;;;0.90;;
76814;SDS011;65768;49.906;19.384;2023-04-03T11:10:24;1.70;;;1.10;;
76814;SDS011;65768;49.906;19.384;2023-04-03T11:13:22;2.20;;;1.30;;
76814;SDS011;65768;49.906;19.384;2023-04-03T11:16:06;2.00;;;1.20;;
76814;SDS011;65768;49.906;19.384;2023-04-03T11:18:42;2.20;;;1.00;;
76814;SDS011;65768;49.906;19.384;2023-04-03T11:21:24;3.80;;;2.20;;
76814;SDS011;65768;49.906;19.384;2023-04-03T11:24:01;3.60;;;1.10;;
76814;SDS011;65768;49.906;19.384;2023-04-03T11:26:35;3.50;;;1.70;;
76814;SDS011;65768;49.906;19.384;2023-04-03T11:29:13;5.40;;;1.30;;
76814;SDS011;65768;49.906;19.384;2023-04-03T11:34:35;4.00;;;1.20;;
76814;SDS011;65768;49.906;19.384;2023-04-03T11:37:20;5.60;;;2.70;;
76814;SDS011;65768;49.906;19.384;2023-04-03T11:40:00;6.80;;;2.80;;
76814;SDS011;65768;49.906;19.384;2023-04-03T11:42:54;7.00;;;2.80;;
76814;SDS011;65768;49.906;19.384;2023-04-03T11:50:49;3.10;;;1.30;;
76814;SDS011;65768;49.906;19.384;2023-04-03T11:56:01;4.60;;;2.00;;
76814;SDS011;65768;49.906;19.384;2023-04-03T11:58:33;2.60;;;1.20;;
76814;SDS011;65768;49.906;19.384;2023-04-03T12:01:10;5.10;;;1.30;;
76814;SDS011;65768;49.906;19.384;2023-04-03T12:04:10;5.80;;;2.70;;
76814;SDS011;65768;49.906;19.384;2023-04-03T12:06:49;4.60;;;2.30;;
76814;SDS011;65768;49.906;19.384;2023-04-03T12:09:34;3.70;;;2.10;;
76814;SDS011;65768;49.906;19.384;2023-04-03T12:12:24;3.30;;;1.50;;
76814;SDS011;65768;49.906;19.384;2023-04-03T12:15:41;3.90;;;1.50;;
76814;SDS011;65768;49.906;19.384;2023-04-03T12:24:23;9.00;;;2.70;;
76814;SDS011;65768;49.906;19.384;2023-04-03T12:32:40;6.10;;;2.40;;
76814;SDS011;65768;49.906;19.384;2023-04-03T12:35:34;2.10;;;1.00;;
76814;SDS011;65768;49.906;19.384;2023-04-03T12:46:51;2.40;;;0.90;;
76814;SDS011;65768;49.906;19.384;2023-04-03T12:49:35;2.20;;;1.20;;
76814;SDS011;65768;49.906;19.384;2023-04-03T12:52:19;2.20;;;1.20;;
76814;SDS011;65768;49.906;19.384;2023-04-03T12:55:18;3.10;;;1.10;;
76814;SDS011;65768;49.906;19.384;2023-04-03T12:57:48;2.20;;;1.30;;
76814;SDS011;65768;49.906;19.384;2023-04-03T13:00:22;6.60;;;2.40;;
76814;SDS011;65768;49.906;19.384;2023-04-03T13:03:03;3.70;;;1.40;;
76814;SDS011;65768;49.906;19.384;2023-04-03T13:05:47;3.70;;;1.50;;
76814;SDS011;65768;49.906;19.384;2023-04-03T13:08:16;5.80;;;3.20;;
76814;SDS011;65768;49.906;19.384;2023-04-03T13:11:06;5.80;;;2.40;;
76814;SDS011;65768;49.906;19.384;2023-04-03T13:13:39;4.60;;;1.60;;
76814;SDS011;65768;49.906;19.384;2023-04-03T13:16:10;3.80;;;1.70;;
76814;SDS011;65768;49.906;19.384;2023-04-03T13:18:39;6.90;;;3.60;;
76814;SDS011;65768;49.906;19.384;2023-04-03T13:21:13;5.70;;;2.00;;
76814;SDS011;65768;49.906;19.384;2023-04-03T13:23:47;4.00;;;1.20;;
76814;SDS011;65768;49.906;19.384;2023-04-03T13:26:18;4.80;;;2.20;;
76814;SDS011;65768;49.906;19.384;2023-04-03T13:28:49;2.70;;;0.80;;
76814;SDS011;65768;49.906;19.384;2023-04-03T13:31:21;4.50;;;1.70;;
76814;SDS011;65768;49.906;19.384;2023-04-03T13:33:55;4.30;;;2.10;;
76814;SDS011;65768;49.906;19.384;2023-04-03T13:36:45;3.20;;;1.10;;
76814;SDS011;65768;49.906;19.384;2023-04-03T13:39:28;3.20;;;2.00;;
76814;SDS011;65768;49.906;19.384;2023-04-03T13:42:01;3.40;;;2.10;;
76814;SDS011;65768;49.906;19.384;2023-04-03T13:47:38;2.50;;;1.30;;
76814;SDS011;65768;49.906;19.384;2023-04-03T13:50:17;2.40;;;1.10;;
76814;SDS011;65768;49.906;19.384;2023-04-03T13:52:53;2.40;;;1.30;;
76814;SDS011;65768;49.906;19.384;2023-04-03T13:55:32;3.60;;;1.40;;
76814;SDS011;65768;49.906;19.384;2023-04-03T13:58:19;5.60;;;1.20;;
76814;SDS011;65768;49.906;19.384;2023-04-03T14:00:52;3.10;;;1.00;;
76814;SDS011;65768;49.906;19.384;2023-04-03T14:03:31;3.30;;;1.10;;
76814;SDS011;65768;49.906;19.384;2023-04-03T14:06:07;3.90;;;1.20;;
76814;SDS011;65768;49.906;19.384;2023-04-03T14:08:39;4.20;;;2.40;;
76814;SDS011;65768;49.906;19.384;2023-04-03T14:11:11;2.70;;;1.50;;
76814;SDS011;65768;49.906;19.384;2023-04-03T14:13:43;4.00;;;2.00;;
76814;SDS011;65768;49.906;19.384;2023-04-03T14:16:13;2.20;;;1.10;;
76814;SDS011;65768;49.906;19.384;2023-04-03T14:18:46;2.90;;;1.20;;
76814;SDS011;65768;49.906;19.384;2023-04-03T14:21:16;2.70;;;0.90;;
76814;SDS011;65768;49.906;19.384;2023-04-03T14:23:45;4.50;;;1.80;;
76814;SDS011;65768;49.906;19.384;2023-04-03T14:26:18;3.00;;;1.20;;
76814;SDS011;65768;49.906;19.384;2023-04-03T14:28:53;2.60;;;1.40;;
76814;SDS011;65768;49.906;19.384;2023-04-03T14:31:23;2.50;;;1.00;;
76814;SDS011;65768;49.906;19.384;2023-04-03T14:33:53;3.00;;;1.10;;
76814;SDS011;65768;49.906;19.384;2023-04-03T14:36:22;4.00;;;1.20;;
76814;SDS011;65768;49.906;19.384;2023-04-03T14:38:55;1.90;;;1.00;;
76814;SDS011;65768;49.906;19.384;2023-04-03T14:41:24;3.30;;;1.20;;
76814;SDS011;65768;49.906;19.384;2023-04-03T14:43:53;4.10;;;2.60;;
76814;SDS011;65768;49.906;19.384;2023-04-03T14:46:29;2.10;;;0.90;;
76814;SDS011;65768;49.906;19.384;2023-04-03T14:49:21;6.50;;;2.60;;
76814;SDS011;65768;49.906;19.384;2023-04-03T14:51:53;3.20;;;1.10;;
76814;SDS011;65768;49.906;19.384;2023-04-03T14:54:24;3.70;;;1.60;;
76814;SDS011;65768;49.906;19.384;2023-04-03T14:56:58;2.90;;;1.30;;
76814;SDS011;65768;49.906;19.384;2023-04-03T14:59:29;2.80;;;1.60;;
76814;SDS011;65768;49.906;19.384;2023-04-03T15:01:59;3.30;;;1.50;;
76814;SDS011;65768;49.906;19.384;2023-04-03T15:04:27;2.80;;;1.00;;
76814;SDS011;65768;49.906;19.384;2023-04-03T15:06:55;2.90;;;1.60;;
76814;SDS011;65768;49.906;19.384;2023-04-03T15:09:25;5.20;;;1.50;;
76814;SDS011;65768;49.906;19.384;2023-04-03T15:11:55;3.90;;;1.30;;
76814;SDS011;65768;49.906;19.384;2023-04-03T15:14:24;1.70;;;1.00;;
76814;SDS011;65768;49.906;19.384;2023-04-03T15:16:54;3.00;;;1.00;;
76814;SDS011;65768;49.906;19.384;2023-04-03T15:19:23;5.90;;;1.90;;
76814;SDS011;65768;49.906;19.384;2023-04-03T15:21:53;5.10;;;1.80;;
76814;SDS011;65768;49.906;19.384;2023-04-03T15:24:22;2.80;;;1.20;;
76814;SDS011;65768;49.906;19.384;2023-04-03T15:26:51;2.10;;;0.90;;
76814;SDS011;65768;49.906;19.384;2023-04-03T15:29:20;4.30;;;1.70;;
76814;SDS011;65768;49.906;19.384;2023-04-03T15:31:50;3.30;;;1.30;;
76814;SDS011;65768;49.906;19.384;2023-04-03T15:34:22;2.30;;;1.10;;
76814;SDS011;65768;49.906;19.384;2023-04-03T15:36:51;3.50;;;1.20;;
76814;SDS011;65768;49.906;19.384;2023-04-03T15:39:24;4.80;;;1.90;;
76814;SDS011;65768;49.906;19.384;2023-04-03T15:41:55;4.20;;;1.70;;
76814;SDS011;65768;49.906;19.384;2023-04-03T15:44:25;2.70;;;1.50;;
76814;SDS011;65768;49.906;19.384;2023-04-03T15:46:54;2.40;;;1.10;;
76814;SDS011;65768;49.906;19.384;2023-04-03T15:49:24;3.70;;;1.70;;
76814;SDS011;65768;49.906;19.384;2023-04-03T15:51:53;2.90;;;1.30;;
76814;SDS011;65768;49.906;19.384;2023-04-03T15:54:22;4.70;;;1.90;;
76814;SDS011;65768;49.906;19.384;2023-04-03T15:56:54;4.70;;;2.50;;
76814;SDS011;65768;49.906;19.384;2023-04-03T15:59:24;3.30;;;1.40;;
76814;SDS011;65768;49.906;19.384;2023-04-03T16:01:55;4.30;;;1.50;;
76814;SDS011;65768;49.906;19.384;2023-04-03T16:04:24;4.90;;;2.00;;
76814;SDS011;65768;49.906;19.384;2023-04-03T16:06:54;3.20;;;1.30;;
76814;SDS011;65768;49.906;19.384;2023-04-03T16:09:23;3.30;;;1.30;;
76814;SDS011;65768;49.906;19.384;2023-04-03T16:11:52;3.20;;;1.10;;
76814;SDS011;65768;49.906;19.384;2023-04-03T16:14:22;3.90;;;1.40;;
76814;SDS011;65768;49.906;19.384;2023-04-03T16:16:51;3.30;;;1.50;;
76814;SDS011;65768;49.906;19.384;2023-04-03T16:19:21;3.50;;;1.50;;
76814;SDS011;65768;49.906;19.384;2023-04-03T16:21:50;4.70;;;1.50;;
76814;SDS011;65768;49.906;19.384;2023-04-03T16:24:19;3.60;;;1.90;;
76814;SDS011;65768;49.906;19.384;2023-04-03T16:26:49;4.00;;;1.40;;
76814;SDS011;65768;49.906;19.384;2023-04-03T16:29:19;4.50;;;2.40;;
76814;SDS011;65768;49.906;19.384;2023-04-03T16:31:47;5.00;;;1.60;;
76814;SDS011;65768;49.906;19.384;2023-04-03T16:34:16;5.70;;;1.70;;
76814;SDS011;65768;49.906;19.384;2023-04-03T16:36:46;3.40;;;1.40;;